sensor_id;sensor_type;location;lat;lon;timestamp;temperature;humidity
39067;DHT22;24821;51.988;6.020;2023-12-28T00:00:02;10.70;99.90
39067;DHT22;24821;51.988;6.020;2023-12-28T00:02:28;10.70;99.90
39067;DHT22;24821;51.988;6.020;2023-12-28T00:04:53;10.70;99.90
39067;DHT22;24821;51.988;6.020;2023-12-28T00:07:18;10.70;99.90
39067;DHT22;24821;51.988;6.020;2023-12-28T00:09:44;10.70;99.90
39067;DHT22;24821;51.988;6.020;2023-12-28T00:12:09;10.70;99.90
39067;DHT22;24821;51.988;6.020;2023-12-28T00:14:35;10.80;99.90
39067;DHT22;24821;51.988;6.020;2023-12-28T00:17:00;10.80;99.90
39067;DHT22;24821;51.988;6.020;2023-12-28T00:19:26;10.80;99.90
39067;DHT22;24821;51.988;6.020;2023-12-28T00:21:51;10.80;99.90
39067;DHT22;24821;51.988;6.020;2023-12-28T00:24:19;10.80;99.90
39067;DHT22;24821;51.988;6.020;2023-12-28T00:26:45;10.70;99.90
39067;DHT22;24821;51.988;6.020;2023-12-28T00:29:10;10.80;99.90
39067;DHT22;24821;51.988;6.020;2023-12-28T00:31:35;10.70;99.90
39067;DHT22;24821;51.988;6.020;2023-12-28T00:34:01;10.80;99.90
39067;DHT22;24821;51.988;6.020;2023-12-28T00:36:26;10.80;99.90
39067;DHT22;24821;51.988;6.020;2023-12-28T00:38:52;10.80;99.90
39067;DHT22;24821;51.988;6.020;2023-12-28T00:41:17;10.80;99.90
39067;DHT22;24821;51.988;6.020;2023-12-28T00:43:43;10.80;99.90
39067;DHT22;24821;51.988;6.020;2023-12-28T00:46:08;10.80;99.90
39067;DHT22;24821;51.988;6.020;2023-12-28T00:48:34;10.80;99.90
39067;DHT22;24821;51.988;6.020;2023-12-28T00:50:59;10.90;99.90
39067;DHT22;24821;51.988;6.020;2023-12-28T00:53:25;10.90;99.90
39067;DHT22;24821;51.988;6.020;2023-12-28T00:55:51;10.90;99.90
39067;DHT22;24821;51.988;6.020;2023-12-28T00:58:16;10.90;99.90
39067;DHT22;24821;51.988;6.020;2023-12-28T01:00:42;10.90;99.90
39067;DHT22;24821;51.988;6.020;2023-12-28T01:03:07;10.90;99.90
39067;DHT22;24821;51.988;6.020;2023-12-28T01:05:33;10.90;99.90
39067;DHT22;24821;51.988;6.020;2023-12-28T01:07:58;11.00;99.90
39067;DHT22;24821;51.988;6.020;2023-12-28T01:10:24;10.90;99.90
39067;DHT22;24821;51.988;6.020;2023-12-28T01:12:49;11.00;99.90
39067;DHT22;24821;51.988;6.020;2023-12-28T01:15:15;11.00;99.90
39067;DHT22;24821;51.988;6.020;2023-12-28T01:17:42;11.00;99.90
39067;DHT22;24821;51.988;6.020;2023-12-28T01:20:08;11.00;99.90
39067;DHT22;24821;51.988;6.020;2023-12-28T01:22:34;11.00;99.90
39067;DHT22;24821;51.988;6.020;2023-12-28T01:24:59;11.00;99.90
39067;DHT22;24821;51.988;6.020;2023-12-28T01:27:24;11.00;99.90
39067;DHT22;24821;51.988;6.020;2023-12-28T01:29:50;11.00;99.90
39067;DHT22;24821;51.988;6.020;2023-12-28T01:32:15;11.00;99.90
39067;DHT22;24821;51.988;6.020;2023-12-28T01:34:41;11.00;99.90
39067;DHT22;24821;51.988;6.020;2023-12-28T01:37:07;11.00;99.90
39067;DHT22;24821;51.988;6.020;2023-12-28T01:39:33;11.00;99.90
39067;DHT22;24821;51.988;6.020;2023-12-28T01:41:58;10.90;99.90
39067;DHT22;24821;51.988;6.020;2023-12-28T01:44:24;10.90;99.90
39067;DHT22;24821;51.988;6.020;2023-12-28T01:46:49;10.90;99.90
39067;DHT22;24821;51.988;6.020;2023-12-28T01:49:15;10.90;99.90
39067;DHT22;24821;51.988;6.020;2023-12-28T01:51:41;10.90;99.90
39067;DHT22;24821;51.988;6.020;2023-12-28T01:54:07;10.80;99.90
39067;DHT22;24821;51.988;6.020;2023-12-28T01:56:33;10.80;99.90
39067;DHT22;24821;51.988;6.020;2023-12-28T01:58:58;10.80;99.90
39067;DHT22;24821;51.988;6.020;2023-12-28T02:01:24;10.80;99.90
39067;DHT22;24821;51.988;6.020;2023-12-28T02:03:51;10.90;99.90
39067;DHT22;24821;51.988;6.020;2023-12-28T02:06:16;10.90;99.90
39067;DHT22;24821;51.988;6.020;2023-12-28T02:08:42;10.90;99.90
39067;DHT22;24821;51.988;6.020;2023-12-28T02:11:08;10.90;99.90
39067;DHT22;24821;51.988;6.020;2023-12-28T02:13:33;10.90;99.90
39067;DHT22;24821;51.988;6.020;2023-12-28T02:16:03;10.80;99.90
39067;DHT22;24821;51.988;6.020;2023-12-28T02:18:37;10.80;99.90
39067;DHT22;24821;51.988;6.020;2023-12-28T02:21:03;10.80;99.90
39067;DHT22;24821;51.988;6.020;2023-12-28T02:23:31;10.80;99.90
39067;DHT22;24821;51.988;6.020;2023-12-28T02:25:57;10.70;99.90
39067;DHT22;24821;51.988;6.020;2023-12-28T02:28:22;10.70;99.90
39067;DHT22;24821;51.988;6.020;2023-12-28T02:30:48;10.70;99.90
39067;DHT22;24821;51.988;6.020;2023-12-28T02:36:15;10.80;99.90
39067;DHT22;24821;51.988;6.020;2023-12-28T02:38:43;10.80;99.90
39067;DHT22;24821;51.988;6.020;2023-12-28T02:41:10;10.70;99.90
39067;DHT22;24821;51.988;6.020;2023-12-28T02:43:36;10.70;99.90
39067;DHT22;24821;51.988;6.020;2023-12-28T02:46:01;10.70;99.90
39067;DHT22;24821;51.988;6.020;2023-12-28T02:48:27;10.80;99.90
39067;DHT22;24821;51.988;6.020;2023-12-28T02:50:52;10.70;99.90
39067;DHT22;24821;51.988;6.020;2023-12-28T02:53:18;10.80;99.90
39067;DHT22;24821;51.988;6.020;2023-12-28T02:55:43;10.70;99.90
39067;DHT22;24821;51.988;6.020;2023-12-28T02:58:09;10.70;99.90
39067;DHT22;24821;51.988;6.020;2023-12-28T03:00:34;10.70;99.90
39067;DHT22;24821;51.988;6.020;2023-12-28T03:03:00;10.60;99.90
39067;DHT22;24821;51.988;6.020;2023-12-28T03:05:25;10.70;99.90
39067;DHT22;24821;51.988;6.020;2023-12-28T03:07:51;10.70;99.90
39067;DHT22;24821;51.988;6.020;2023-12-28T03:10:16;10.70;99.90
39067;DHT22;24821;51.988;6.020;2023-12-28T03:12:42;10.70;99.90
39067;DHT22;24821;51.988;6.020;2023-12-28T03:15:07;10.70;99.90
39067;DHT22;24821;51.988;6.020;2023-12-28T03:17:33;10.70;99.90
39067;DHT22;24821;51.988;6.020;2023-12-28T03:19:58;10.70;99.90
39067;DHT22;24821;51.988;6.020;2023-12-28T03:22:24;10.70;99.90
39067;DHT22;24821;51.988;6.020;2023-12-28T03:24:50;10.60;99.90
39067;DHT22;24821;51.988;6.020;2023-12-28T03:27:15;10.60;99.90
39067;DHT22;24821;51.988;6.020;2023-12-28T03:29:41;10.60;99.90
39067;DHT22;24821;51.988;6.020;2023-12-28T03:32:07;10.60;99.90
39067;DHT22;24821;51.988;6.020;2023-12-28T03:34:33;10.60;99.90
39067;DHT22;24821;51.988;6.020;2023-12-28T03:36:59;10.60;99.90
39067;DHT22;24821;51.988;6.020;2023-12-28T03:39:24;10.60;99.90
39067;DHT22;24821;51.988;6.020;2023-12-28T03:41:50;10.60;99.90
39067;DHT22;24821;51.988;6.020;2023-12-28T03:44:15;10.60;99.90
39067;DHT22;24821;51.988;6.020;2023-12-28T03:46:41;10.60;99.90
39067;DHT22;24821;51.988;6.020;2023-12-28T03:49:06;10.70;99.90
39067;DHT22;24821;51.988;6.020;2023-12-28T03:51:32;10.80;99.90
39067;DHT22;24821;51.988;6.020;2023-12-28T03:53:57;10.80;99.90
39067;DHT22;24821;51.988;6.020;2023-12-28T03:56:23;10.90;99.90
39067;DHT22;24821;51.988;6.020;2023-12-28T03:58:49;10.90;99.90
39067;DHT22;24821;51.988;6.020;2023-12-28T04:01:18;11.00;99.90
39067;DHT22;24821;51.988;6.020;2023-12-28T04:03:44;11.00;99.90
39067;DHT22;24821;51.988;6.020;2023-12-28T04:06:10;11.00;99.90
39067;DHT22;24821;51.988;6.020;2023-12-28T04:08:35;11.00;99.90
39067;DHT22;24821;51.988;6.020;2023-12-28T04:11:01;10.90;99.90
39067;DHT22;24821;51.988;6.020;2023-12-28T04:13:26;10.90;99.90
39067;DHT22;24821;51.988;6.020;2023-12-28T04:15:52;11.00;99.90
39067;DHT22;24821;51.988;6.020;2023-12-28T04:18:17;10.90;99.90
39067;DHT22;24821;51.988;6.020;2023-12-28T04:20:43;10.90;99.90
39067;DHT22;24821;51.988;6.020;2023-12-28T04:23:09;11.00;99.90
39067;DHT22;24821;51.988;6.020;2023-12-28T04:25:35;10.90;99.90
39067;DHT22;24821;51.988;6.020;2023-12-28T04:28:00;10.90;99.90
39067;DHT22;24821;51.988;6.020;2023-12-28T04:30:26;11.00;99.90
39067;DHT22;24821;51.988;6.020;2023-12-28T04:32:52;11.00;99.90
39067;DHT22;24821;51.988;6.020;2023-12-28T04:35:18;11.00;99.90
39067;DHT22;24821;51.988;6.020;2023-12-28T04:37:43;11.00;99.90
39067;DHT22;24821;51.988;6.020;2023-12-28T04:40:09;11.10;99.90
39067;DHT22;24821;51.988;6.020;2023-12-28T04:42:34;11.10;99.90
39067;DHT22;24821;51.988;6.020;2023-12-28T04:45:00;11.10;99.90
39067;DHT22;24821;51.988;6.020;2023-12-28T04:47:25;11.10;99.90
39067;DHT22;24821;51.988;6.020;2023-12-28T04:49:51;11.10;99.90
39067;DHT22;24821;51.988;6.020;2023-12-28T04:52:16;11.10;99.90
39067;DHT22;24821;51.988;6.020;2023-12-28T04:54:42;11.10;99.90
39067;DHT22;24821;51.988;6.020;2023-12-28T04:57:07;11.20;99.90
39067;DHT22;24821;51.988;6.020;2023-12-28T04:59:39;11.10;99.90
39067;DHT22;24821;51.988;6.020;2023-12-28T05:02:04;11.10;99.90
39067;DHT22;24821;51.988;6.020;2023-12-28T05:04:30;11.10;99.90
39067;DHT22;24821;51.988;6.020;2023-12-28T05:06:55;11.20;99.90
39067;DHT22;24821;51.988;6.020;2023-12-28T05:09:20;11.20;99.90
39067;DHT22;24821;51.988;6.020;2023-12-28T05:11:46;11.20;99.90
39067;DHT22;24821;51.988;6.020;2023-12-28T05:14:12;11.20;99.90
39067;DHT22;24821;51.988;6.020;2023-12-28T05:16:37;11.30;99.90
39067;DHT22;24821;51.988;6.020;2023-12-28T05:19:03;11.30;99.90
39067;DHT22;24821;51.988;6.020;2023-12-28T05:21:28;11.30;99.90
39067;DHT22;24821;51.988;6.020;2023-12-28T05:23:54;11.30;99.90
39067;DHT22;24821;51.988;6.020;2023-12-28T05:26:19;11.30;99.90
39067;DHT22;24821;51.988;6.020;2023-12-28T05:28:45;11.30;99.90
39067;DHT22;24821;51.988;6.020;2023-12-28T05:31:10;11.30;99.90
39067;DHT22;24821;51.988;6.020;2023-12-28T05:33:36;11.40;99.90
39067;DHT22;24821;51.988;6.020;2023-12-28T05:36:01;11.40;99.90
39067;DHT22;24821;51.988;6.020;2023-12-28T05:38:27;11.40;99.90
39067;DHT22;24821;51.988;6.020;2023-12-28T05:40:52;11.40;99.90
39067;DHT22;24821;51.988;6.020;2023-12-28T05:43:18;11.40;99.90
39067;DHT22;24821;51.988;6.020;2023-12-28T05:45:43;11.50;99.90
39067;DHT22;24821;51.988;6.020;2023-12-28T05:48:09;11.50;99.90
39067;DHT22;24821;51.988;6.020;2023-12-28T05:50:34;11.50;99.90
39067;DHT22;24821;51.988;6.020;2023-12-28T05:53:00;11.50;99.90
39067;DHT22;24821;51.988;6.020;2023-12-28T05:55:25;11.50;99.90
39067;DHT22;24821;51.988;6.020;2023-12-28T05:57:50;11.50;99.90
39067;DHT22;24821;51.988;6.020;2023-12-28T06:00:16;11.50;99.90
39067;DHT22;24821;51.988;6.020;2023-12-28T06:02:41;11.50;99.90
39067;DHT22;24821;51.988;6.020;2023-12-28T06:05:07;11.50;99.90
39067;DHT22;24821;51.988;6.020;2023-12-28T06:07:32;11.60;99.90
39067;DHT22;24821;51.988;6.020;2023-12-28T06:09:58;11.60;99.90
39067;DHT22;24821;51.988;6.020;2023-12-28T06:12:24;11.60;99.90
39067;DHT22;24821;51.988;6.020;2023-12-28T06:14:49;11.60;99.90
39067;DHT22;24821;51.988;6.020;2023-12-28T06:17:15;11.60;99.90
39067;DHT22;24821;51.988;6.020;2023-12-28T06:19:41;11.60;99.90
39067;DHT22;24821;51.988;6.020;2023-12-28T06:22:06;11.60;99.90
39067;DHT22;24821;51.988;6.020;2023-12-28T06:24:32;11.60;99.90
39067;DHT22;24821;51.988;6.020;2023-12-28T06:26:57;11.60;99.90
39067;DHT22;24821;51.988;6.020;2023-12-28T06:29:23;11.60;99.90
39067;DHT22;24821;51.988;6.020;2023-12-28T06:31:48;11.60;99.90
39067;DHT22;24821;51.988;6.020;2023-12-28T06:34:14;11.70;99.90
39067;DHT22;24821;51.988;6.020;2023-12-28T06:36:39;11.60;99.90
39067;DHT22;24821;51.988;6.020;2023-12-28T06:39:05;11.60;99.90
39067;DHT22;24821;51.988;6.020;2023-12-28T06:41:30;11.60;99.90
39067;DHT22;24821;51.988;6.020;2023-12-28T06:43:56;11.60;99.90
39067;DHT22;24821;51.988;6.020;2023-12-28T06:46:21;11.60;99.90
39067;DHT22;24821;51.988;6.020;2023-12-28T06:48:47;11.60;99.90
39067;DHT22;24821;51.988;6.020;2023-12-28T06:51:16;11.60;99.90
39067;DHT22;24821;51.988;6.020;2023-12-28T06:53:41;11.70;99.90
39067;DHT22;24821;51.988;6.020;2023-12-28T06:56:07;11.70;99.90
39067;DHT22;24821;51.988;6.020;2023-12-28T06:58:32;11.70;99.90
39067;DHT22;24821;51.988;6.020;2023-12-28T07:00:58;11.70;99.90
39067;DHT22;24821;51.988;6.020;2023-12-28T07:03:23;11.70;99.90
39067;DHT22;24821;51.988;6.020;2023-12-28T07:05:50;11.60;99.90
39067;DHT22;24821;51.988;6.020;2023-12-28T07:08:16;11.60;99.90
39067;DHT22;24821;51.988;6.020;2023-12-28T07:10:42;11.70;99.90
39067;DHT22;24821;51.988;6.020;2023-12-28T07:13:07;11.70;99.90
39067;DHT22;24821;51.988;6.020;2023-12-28T07:15:33;11.70;99.90
39067;DHT22;24821;51.988;6.020;2023-12-28T07:17:58;11.60;99.90
39067;DHT22;24821;51.988;6.020;2023-12-28T07:20:23;11.70;99.90
39067;DHT22;24821;51.988;6.020;2023-12-28T07:22:49;11.70;99.90
39067;DHT22;24821;51.988;6.020;2023-12-28T07:25:14;11.70;99.90
39067;DHT22;24821;51.988;6.020;2023-12-28T07:27:40;11.70;99.90
39067;DHT22;24821;51.988;6.020;2023-12-28T07:30:06;11.70;99.90
39067;DHT22;24821;51.988;6.020;2023-12-28T07:32:32;11.70;99.90
39067;DHT22;24821;51.988;6.020;2023-12-28T07:34:57;11.70;99.90
39067;DHT22;24821;51.988;6.020;2023-12-28T07:37:24;11.70;99.90
39067;DHT22;24821;51.988;6.020;2023-12-28T07:39:49;11.70;99.90
39067;DHT22;24821;51.988;6.020;2023-12-28T07:42:15;11.70;99.90
39067;DHT22;24821;51.988;6.020;2023-12-28T07:44:40;11.70;99.90
39067;DHT22;24821;51.988;6.020;2023-12-28T07:47:06;11.70;99.90
39067;DHT22;24821;51.988;6.020;2023-12-28T07:49:31;11.70;99.90
39067;DHT22;24821;51.988;6.020;2023-12-28T07:51:57;11.70;99.90
39067;DHT22;24821;51.988;6.020;2023-12-28T07:54:22;11.70;99.90
39067;DHT22;24821;51.988;6.020;2023-12-28T07:56:48;11.70;99.90
39067;DHT22;24821;51.988;6.020;2023-12-28T07:59:13;11.70;99.90
39067;DHT22;24821;51.988;6.020;2023-12-28T08:01:39;11.70;99.90
39067;DHT22;24821;51.988;6.020;2023-12-28T08:04:04;11.70;99.90
39067;DHT22;24821;51.988;6.020;2023-12-28T08:06:30;11.70;99.90
39067;DHT22;24821;51.988;6.020;2023-12-28T08:08:58;11.70;99.90
39067;DHT22;24821;51.988;6.020;2023-12-28T08:11:27;11.70;99.90
39067;DHT22;24821;51.988;6.020;2023-12-28T08:13:52;11.70;99.90
39067;DHT22;24821;51.988;6.020;2023-12-28T08:16:19;11.70;99.90
39067;DHT22;24821;51.988;6.020;2023-12-28T08:18:44;11.80;99.90
39067;DHT22;24821;51.988;6.020;2023-12-28T08:21:10;11.70;99.90
39067;DHT22;24821;51.988;6.020;2023-12-28T08:23:35;11.70;99.90
39067;DHT22;24821;51.988;6.020;2023-12-28T08:26:01;11.70;99.90
39067;DHT22;24821;51.988;6.020;2023-12-28T08:28:26;11.80;99.90
39067;DHT22;24821;51.988;6.020;2023-12-28T08:30:52;11.80;99.90
39067;DHT22;24821;51.988;6.020;2023-12-28T08:33:17;11.80;99.90
39067;DHT22;24821;51.988;6.020;2023-12-28T08:35:43;11.80;99.90
39067;DHT22;24821;51.988;6.020;2023-12-28T08:38:08;11.80;99.90
39067;DHT22;24821;51.988;6.020;2023-12-28T08:40:34;11.80;99.90
39067;DHT22;24821;51.988;6.020;2023-12-28T08:42:59;11.80;99.90
39067;DHT22;24821;51.988;6.020;2023-12-28T08:45:25;11.90;99.90
39067;DHT22;24821;51.988;6.020;2023-12-28T08:47:50;11.90;99.90
39067;DHT22;24821;51.988;6.020;2023-12-28T08:50:16;11.90;99.90
39067;DHT22;24821;51.988;6.020;2023-12-28T08:52:41;11.90;99.90
39067;DHT22;24821;51.988;6.020;2023-12-28T08:55:07;11.90;99.90
39067;DHT22;24821;51.988;6.020;2023-12-28T08:57:32;11.90;99.90
39067;DHT22;24821;51.988;6.020;2023-12-28T08:59:58;11.90;99.90
39067;DHT22;24821;51.988;6.020;2023-12-28T09:02:28;11.90;99.90
39067;DHT22;24821;51.988;6.020;2023-12-28T09:04:54;11.90;99.90
39067;DHT22;24821;51.988;6.020;2023-12-28T09:07:19;11.90;99.90
39067;DHT22;24821;51.988;6.020;2023-12-28T09:09:45;11.90;99.90
39067;DHT22;24821;51.988;6.020;2023-12-28T09:12:11;11.90;99.90
39067;DHT22;24821;51.988;6.020;2023-12-28T09:14:36;11.90;99.90
39067;DHT22;24821;51.988;6.020;2023-12-28T09:17:02;11.90;99.90
39067;DHT22;24821;51.988;6.020;2023-12-28T09:19:27;11.90;99.90
39067;DHT22;24821;51.988;6.020;2023-12-28T09:21:53;11.90;99.90
39067;DHT22;24821;51.988;6.020;2023-12-28T09:24:18;11.90;99.90
39067;DHT22;24821;51.988;6.020;2023-12-28T09:26:44;11.90;99.90
39067;DHT22;24821;51.988;6.020;2023-12-28T09:29:09;11.90;99.90
39067;DHT22;24821;51.988;6.020;2023-12-28T09:31:34;11.90;99.90
39067;DHT22;24821;51.988;6.020;2023-12-28T09:34:00;11.90;99.90
39067;DHT22;24821;51.988;6.020;2023-12-28T09:36:26;12.00;99.90
39067;DHT22;24821;51.988;6.020;2023-12-28T09:38:51;12.00;99.90
39067;DHT22;24821;51.988;6.020;2023-12-28T09:41:17;12.00;99.90
39067;DHT22;24821;51.988;6.020;2023-12-28T09:43:45;12.00;99.90
39067;DHT22;24821;51.988;6.020;2023-12-28T09:46:11;12.10;99.90
39067;DHT22;24821;51.988;6.020;2023-12-28T09:48:37;12.10;99.90
39067;DHT22;24821;51.988;6.020;2023-12-28T09:51:04;12.10;99.90
39067;DHT22;24821;51.988;6.020;2023-12-28T09:53:30;12.10;99.90
39067;DHT22;24821;51.988;6.020;2023-12-28T09:55:55;12.20;99.90
39067;DHT22;24821;51.988;6.020;2023-12-28T09:58:21;12.10;99.90
39067;DHT22;24821;51.988;6.020;2023-12-28T10:00:47;12.10;99.90
39067;DHT22;24821;51.988;6.020;2023-12-28T10:03:13;12.10;99.90
39067;DHT22;24821;51.988;6.020;2023-12-28T10:05:42;12.10;99.90
39067;DHT22;24821;51.988;6.020;2023-12-28T10:08:08;12.20;99.90
39067;DHT22;24821;51.988;6.020;2023-12-28T10:10:34;12.20;99.90
39067;DHT22;24821;51.988;6.020;2023-12-28T10:12:59;12.20;99.90
39067;DHT22;24821;51.988;6.020;2023-12-28T10:15:25;12.20;99.90
39067;DHT22;24821;51.988;6.020;2023-12-28T10:17:54;12.20;99.90
39067;DHT22;24821;51.988;6.020;2023-12-28T10:20:19;12.20;99.90
39067;DHT22;24821;51.988;6.020;2023-12-28T10:22:45;12.30;99.90
39067;DHT22;24821;51.988;6.020;2023-12-28T10:25:11;12.20;99.90
39067;DHT22;24821;51.988;6.020;2023-12-28T10:27:37;12.20;99.90
39067;DHT22;24821;51.988;6.020;2023-12-28T10:30:03;12.20;99.90
39067;DHT22;24821;51.988;6.020;2023-12-28T10:32:29;12.20;99.90
39067;DHT22;24821;51.988;6.020;2023-12-28T10:34:54;12.20;99.90
39067;DHT22;24821;51.988;6.020;2023-12-28T10:37:20;12.20;99.90
39067;DHT22;24821;51.988;6.020;2023-12-28T10:39:46;12.20;99.90
39067;DHT22;24821;51.988;6.020;2023-12-28T10:42:13;12.20;99.90
39067;DHT22;24821;51.988;6.020;2023-12-28T10:44:40;12.20;99.90
39067;DHT22;24821;51.988;6.020;2023-12-28T10:47:07;12.30;99.90
39067;DHT22;24821;51.988;6.020;2023-12-28T10:49:36;12.30;99.90
39067;DHT22;24821;51.988;6.020;2023-12-28T10:52:03;12.30;99.90
39067;DHT22;24821;51.988;6.020;2023-12-28T10:54:53;12.30;99.90
39067;DHT22;24821;51.988;6.020;2023-12-28T10:57:33;12.30;99.90
39067;DHT22;24821;51.988;6.020;2023-12-28T11:00:08;12.30;99.90
39067;DHT22;24821;51.988;6.020;2023-12-28T11:02:46;12.30;99.90
39067;DHT22;24821;51.988;6.020;2023-12-28T11:05:13;12.30;99.90
39067;DHT22;24821;51.988;6.020;2023-12-28T11:07:39;12.30;99.90
39067;DHT22;24821;51.988;6.020;2023-12-28T11:10:06;12.30;99.90
39067;DHT22;24821;51.988;6.020;2023-12-28T11:12:32;12.40;99.90
39067;DHT22;24821;51.988;6.020;2023-12-28T11:14:58;12.40;99.90
39067;DHT22;24821;51.988;6.020;2023-12-28T11:17:24;12.40;99.90
39067;DHT22;24821;51.988;6.020;2023-12-28T11:19:50;12.40;99.90
39067;DHT22;24821;51.988;6.020;2023-12-28T11:22:16;12.40;99.90
39067;DHT22;24821;51.988;6.020;2023-12-28T11:24:42;12.40;99.90
39067;DHT22;24821;51.988;6.020;2023-12-28T11:27:07;12.40;99.90
39067;DHT22;24821;51.988;6.020;2023-12-28T11:29:34;12.40;99.90
39067;DHT22;24821;51.988;6.020;2023-12-28T11:31:59;12.40;99.90
39067;DHT22;24821;51.988;6.020;2023-12-28T11:34:29;12.50;99.90
39067;DHT22;24821;51.988;6.020;2023-12-28T11:36:55;12.40;99.90
39067;DHT22;24821;51.988;6.020;2023-12-28T11:39:28;12.40;99.90
39067;DHT22;24821;51.988;6.020;2023-12-28T11:41:59;12.40;99.90
39067;DHT22;24821;51.988;6.020;2023-12-28T11:44:26;12.40;99.90
39067;DHT22;24821;51.988;6.020;2023-12-28T11:46:52;12.40;99.90
39067;DHT22;24821;51.988;6.020;2023-12-28T11:49:17;12.40;99.90
39067;DHT22;24821;51.988;6.020;2023-12-28T11:51:53;12.40;99.90
39067;DHT22;24821;51.988;6.020;2023-12-28T11:54:19;12.40;99.90
39067;DHT22;24821;51.988;6.020;2023-12-28T11:56:45;12.50;99.90
39067;DHT22;24821;51.988;6.020;2023-12-28T11:59:10;12.40;99.90
39067;DHT22;24821;51.988;6.020;2023-12-28T12:01:36;12.40;99.90
39067;DHT22;24821;51.988;6.020;2023-12-28T12:04:01;12.40;99.90
39067;DHT22;24821;51.988;6.020;2023-12-28T12:06:26;12.40;99.90
39067;DHT22;24821;51.988;6.020;2023-12-28T12:08:52;12.30;99.90
39067;DHT22;24821;51.988;6.020;2023-12-28T12:11:17;12.30;99.90
39067;DHT22;24821;51.988;6.020;2023-12-28T12:13:43;12.30;99.90
39067;DHT22;24821;51.988;6.020;2023-12-28T12:16:09;12.30;99.90
39067;DHT22;24821;51.988;6.020;2023-12-28T12:18:35;12.30;99.90
39067;DHT22;24821;51.988;6.020;2023-12-28T12:21:01;12.20;99.90
39067;DHT22;24821;51.988;6.020;2023-12-28T12:23:27;12.30;99.90
39067;DHT22;24821;51.988;6.020;2023-12-28T12:25:52;12.30;99.90
39067;DHT22;24821;51.988;6.020;2023-12-28T12:28:18;12.30;99.90
39067;DHT22;24821;51.988;6.020;2023-12-28T12:30:51;12.30;99.90
39067;DHT22;24821;51.988;6.020;2023-12-28T12:33:17;12.20;99.90
39067;DHT22;24821;51.988;6.020;2023-12-28T12:35:42;12.20;99.90
39067;DHT22;24821;51.988;6.020;2023-12-28T12:38:08;12.20;99.90
39067;DHT22;24821;51.988;6.020;2023-12-28T12:40:34;12.20;99.90
39067;DHT22;24821;51.988;6.020;2023-12-28T12:42:59;12.20;99.90
39067;DHT22;24821;51.988;6.020;2023-12-28T12:45:25;12.20;99.90
39067;DHT22;24821;51.988;6.020;2023-12-28T12:47:51;12.30;99.90
39067;DHT22;24821;51.988;6.020;2023-12-28T12:50:16;12.30;99.90
39067;DHT22;24821;51.988;6.020;2023-12-28T12:52:42;12.30;99.90
39067;DHT22;24821;51.988;6.020;2023-12-28T12:55:12;12.30;99.90
39067;DHT22;24821;51.988;6.020;2023-12-28T12:57:38;12.30;99.90
39067;DHT22;24821;51.988;6.020;2023-12-28T13:00:04;12.30;99.90
39067;DHT22;24821;51.988;6.020;2023-12-28T13:02:33;12.30;99.90
39067;DHT22;24821;51.988;6.020;2023-12-28T13:04:59;12.30;99.90
39067;DHT22;24821;51.988;6.020;2023-12-28T13:07:24;12.30;99.90
39067;DHT22;24821;51.988;6.020;2023-12-28T13:09:50;12.30;99.90
39067;DHT22;24821;51.988;6.020;2023-12-28T13:12:16;12.30;99.90
39067;DHT22;24821;51.988;6.020;2023-12-28T13:14:42;12.30;99.90
39067;DHT22;24821;51.988;6.020;2023-12-28T13:17:10;12.30;99.90
39067;DHT22;24821;51.988;6.020;2023-12-28T13:19:35;12.30;99.90
39067;DHT22;24821;51.988;6.020;2023-12-28T13:22:01;12.30;99.90
39067;DHT22;24821;51.988;6.020;2023-12-28T13:24:26;12.30;99.90
39067;DHT22;24821;51.988;6.020;2023-12-28T13:26:52;12.30;99.90
39067;DHT22;24821;51.988;6.020;2023-12-28T13:29:17;12.20;99.90
39067;DHT22;24821;51.988;6.020;2023-12-28T13:31:42;12.20;99.90
39067;DHT22;24821;51.988;6.020;2023-12-28T13:34:10;12.20;99.90
39067;DHT22;24821;51.988;6.020;2023-12-28T13:36:35;12.20;99.90
39067;DHT22;24821;51.988;6.020;2023-12-28T13:39:01;12.10;99.90
39067;DHT22;24821;51.988;6.020;2023-12-28T13:41:26;12.10;99.90
39067;DHT22;24821;51.988;6.020;2023-12-28T13:43:53;12.10;99.90
39067;DHT22;24821;51.988;6.020;2023-12-28T13:46:25;12.10;99.90
39067;DHT22;24821;51.988;6.020;2023-12-28T13:48:51;12.10;99.90
39067;DHT22;24821;51.988;6.020;2023-12-28T13:51:16;12.10;99.90
39067;DHT22;24821;51.988;6.020;2023-12-28T13:53:41;12.10;99.90
39067;DHT22;24821;51.988;6.020;2023-12-28T13:56:07;12.10;99.90
39067;DHT22;24821;51.988;6.020;2023-12-28T13:58:35;12.10;99.90
39067;DHT22;24821;51.988;6.020;2023-12-28T14:01:01;12.10;99.90
39067;DHT22;24821;51.988;6.020;2023-12-28T14:03:28;12.10;99.90
39067;DHT22;24821;51.988;6.020;2023-12-28T14:05:53;12.10;99.90
39067;DHT22;24821;51.988;6.020;2023-12-28T14:08:18;12.10;99.90
39067;DHT22;24821;51.988;6.020;2023-12-28T14:10:44;12.00;99.90
39067;DHT22;24821;51.988;6.020;2023-12-28T14:13:09;12.10;99.90
39067;DHT22;24821;51.988;6.020;2023-12-28T14:15:35;12.00;99.90
39067;DHT22;24821;51.988;6.020;2023-12-28T14:18:00;12.00;99.90
39067;DHT22;24821;51.988;6.020;2023-12-28T14:20:26;12.10;99.90
39067;DHT22;24821;51.988;6.020;2023-12-28T14:22:53;12.00;99.90
39067;DHT22;24821;51.988;6.020;2023-12-28T14:25:18;12.00;99.90
39067;DHT22;24821;51.988;6.020;2023-12-28T14:27:44;12.00;99.90
39067;DHT22;24821;51.988;6.020;2023-12-28T14:30:09;12.00;99.90
39067;DHT22;24821;51.988;6.020;2023-12-28T14:32:35;11.90;99.90
39067;DHT22;24821;51.988;6.020;2023-12-28T14:35:01;12.00;99.90
39067;DHT22;24821;51.988;6.020;2023-12-28T14:37:26;12.00;99.90
39067;DHT22;24821;51.988;6.020;2023-12-28T14:39:52;12.00;99.90
39067;DHT22;24821;51.988;6.020;2023-12-28T14:42:17;12.00;99.90
39067;DHT22;24821;51.988;6.020;2023-12-28T14:44:43;12.00;99.90
39067;DHT22;24821;51.988;6.020;2023-12-28T14:47:08;12.00;99.90
39067;DHT22;24821;51.988;6.020;2023-12-28T14:49:34;12.00;99.90
39067;DHT22;24821;51.988;6.020;2023-12-28T14:51:59;11.90;99.90
39067;DHT22;24821;51.988;6.020;2023-12-28T14:54:25;12.00;99.90
39067;DHT22;24821;51.988;6.020;2023-12-28T14:56:50;11.90;99.90
39067;DHT22;24821;51.988;6.020;2023-12-28T14:59:16;11.90;99.90
39067;DHT22;24821;51.988;6.020;2023-12-28T15:01:41;11.90;99.90
39067;DHT22;24821;51.988;6.020;2023-12-28T15:04:06;11.90;99.90
39067;DHT22;24821;51.988;6.020;2023-12-28T15:06:32;11.90;99.90
39067;DHT22;24821;51.988;6.020;2023-12-28T15:08:57;11.90;99.90
39067;DHT22;24821;51.988;6.020;2023-12-28T15:11:23;11.90;99.90
39067;DHT22;24821;51.988;6.020;2023-12-28T15:13:48;11.90;99.90
39067;DHT22;24821;51.988;6.020;2023-12-28T15:16:14;11.90;99.90
39067;DHT22;24821;51.988;6.020;2023-12-28T15:18:40;11.90;99.90
39067;DHT22;24821;51.988;6.020;2023-12-28T15:21:06;11.90;99.90
39067;DHT22;24821;51.988;6.020;2023-12-28T15:23:31;11.90;99.90